Terminal Aerodrome Forecast
Issued by NWS

Home | Current Version | Previous Version | Text Only | Print | Product List | Glossary On
Versions: 1 2 3 4 5 6 7 8 9 10 11 12
000
FTUS45 KRIW 312300
TAFCPR
TAF
KCPR 312327Z 0100/0124 VRB06KT P6SM SCT250
     FM010200 VRB05KT P6SM SCT080
     FM011000 23006KT P6SM FEW100
     FM011900 VRB11G18KT P6SM VCTS SCT070CB=

USA.gov is the U.S. government's official web portal to all federal, state and local government web resources and services.